createdAt,value
2022-08-19T00:01:59.287Z,22.04
2022-08-19T00:04:37.442Z,21.96
2022-08-19T00:07:06.661Z,21.87
2022-08-19T00:09:34.885Z,21.82
2022-08-19T00:12:02.837Z,21.75
2022-08-19T00:14:33.880Z,21.72
2022-08-19T00:17:02.083Z,21.70
2022-08-19T00:19:29.592Z,21.71
2022-08-19T00:21:57.372Z,21.68
2022-08-19T00:24:25.729Z,21.68
2022-08-19T00:26:53.679Z,21.64
2022-08-19T00:29:22.554Z,21.70
2022-08-19T00:31:52.218Z,21.82
2022-08-19T00:34:19.603Z,21.86
2022-08-19T00:36:47.446Z,21.86
2022-08-19T00:39:16.519Z,21.85
2022-08-19T00:41:47.736Z,21.93
2022-08-19T00:44:26.890Z,22.09
2022-08-19T00:46:58.172Z,22.16
2022-08-19T00:49:35.537Z,22.24
2022-08-19T00:52:07.673Z,22.21
2022-08-19T00:54:37.651Z,22.31
2022-08-19T00:57:08.897Z,22.34
2022-08-19T00:59:58.779Z,22.32
2022-08-19T01:02:28.387Z,22.29
2022-08-19T01:04:56.749Z,22.25
2022-08-19T01:07:24.169Z,22.22
2022-08-19T01:09:51.687Z,22.20
2022-08-19T01:12:19.476Z,22.17
2022-08-19T01:14:48.828Z,22.11
2022-08-19T01:17:17.242Z,22.08
2022-08-19T01:19:47.789Z,22.10
2022-08-19T01:22:31.459Z,22.04
2022-08-19T01:25:00.754Z,22.05
2022-08-19T01:27:29.911Z,22.06
2022-08-19T01:30:04.095Z,22.00
2022-08-19T01:32:33.984Z,21.91
2022-08-19T01:35:03.967Z,21.92
2022-08-19T01:37:31.779Z,21.81
2022-08-19T01:39:59.136Z,21.71
2022-08-19T01:42:30.298Z,21.69
2022-08-19T01:44:58.344Z,21.73
2022-08-19T01:47:25.513Z,21.68
2022-08-19T01:49:52.764Z,21.70
2022-08-19T01:52:20.606Z,21.73
2022-08-19T01:54:47.916Z,21.84
2022-08-19T01:57:15.839Z,21.93
2022-08-19T01:59:45.083Z,21.95
2022-08-19T02:02:12.636Z,22.15
2022-08-19T02:04:40.348Z,22.21
2022-08-19T02:07:09.107Z,22.25
2022-08-19T02:09:36.734Z,22.22
2022-08-19T02:12:05.841Z,22.20
2022-08-19T02:14:35.290Z,22.14
2022-08-19T02:17:02.653Z,22.14
2022-08-19T02:19:29.869Z,22.06
2022-08-19T02:21:57.258Z,22.08
2022-08-19T02:24:24.604Z,22.15
2022-08-19T02:26:52.345Z,22.15
2022-08-19T02:29:19.857Z,22.17
2022-08-19T02:31:47.268Z,22.10
2022-08-19T02:34:14.556Z,22.08
2022-08-19T02:36:42.495Z,22.25
2022-08-19T02:39:11.104Z,22.22
2022-08-19T02:41:38.312Z,22.28
2022-08-19T02:44:29.033Z,22.25
2022-08-19T02:46:53.386Z,22.23
2022-08-19T02:49:20.937Z,22.22
2022-08-19T02:51:48.373Z,22.17
2022-08-19T02:54:15.858Z,22.29
2022-08-19T02:56:44.599Z,22.31
2022-08-19T02:59:13.087Z,22.38
2022-08-19T03:01:42.241Z,22.26
2022-08-19T03:04:12.671Z,22.35
2022-08-19T03:06:42.379Z,22.30
2022-08-19T03:09:10.767Z,22.30
2022-08-19T03:11:39.060Z,22.32
2022-08-19T03:14:08.218Z,22.35
2022-08-19T03:16:48.078Z,22.35
2022-08-19T03:19:18.454Z,22.36
2022-08-19T03:21:46.461Z,22.30
2022-08-19T03:24:16.312Z,22.26
2022-08-19T03:26:47.552Z,22.20
2022-08-19T03:29:16.318Z,22.20
2022-08-19T03:31:57.813Z,22.18
2022-08-19T03:34:28.023Z,22.08
2022-08-19T03:36:57.533Z,22.16
2022-08-19T03:39:26.170Z,22.04
2022-08-19T03:42:32.109Z,22.01
2022-08-19T03:44:43.369Z,21.99
2022-08-19T03:47:10.553Z,21.94
2022-08-19T03:49:37.843Z,21.99
2022-08-19T03:52:08.530Z,21.94
2022-08-19T03:54:36.823Z,21.92
2022-08-19T03:57:04.348Z,21.91
2022-08-19T03:59:34.813Z,21.88
2022-08-19T04:02:06.856Z,21.99
2022-08-19T04:04:34.315Z,22.05
2022-08-19T04:07:01.502Z,22.17
2022-08-19T04:09:28.674Z,22.35
2022-08-19T04:11:57.962Z,22.17
2022-08-19T04:14:29.489Z,22.00
2022-08-19T04:16:57.826Z,22.19
2022-08-19T04:19:25.641Z,22.10
2022-08-19T04:21:55.062Z,22.27
2022-08-19T04:24:23.660Z,22.27
2022-08-19T04:26:51.815Z,22.49
2022-08-19T04:29:26.126Z,22.45
2022-08-19T04:31:55.841Z,22.60
2022-08-19T04:34:25.512Z,22.76
2022-08-19T04:36:55.345Z,22.58
2022-08-19T04:39:49.011Z,22.92
2022-08-19T04:42:36.912Z,23.31
2022-08-19T04:45:09.232Z,23.39
2022-08-19T04:47:47.757Z,23.36
2022-08-19T04:50:27.659Z,23.44
2022-08-19T04:52:57.204Z,23.53
2022-08-19T04:55:26.846Z,23.37
2022-08-19T04:57:55.675Z,23.73
2022-08-19T05:00:23.418Z,23.77
2022-08-19T05:02:50.708Z,24.26
2022-08-19T05:05:18.544Z,23.45
2022-08-19T05:07:45.759Z,23.53
2022-08-19T05:10:13.789Z,22.96
2022-08-19T05:12:41.221Z,23.85
2022-08-19T05:15:12.174Z,23.49
2022-08-19T05:17:59.302Z,24.80
2022-08-19T05:20:45.315Z,26.12
2022-08-19T05:23:21.902Z,28.42
2022-08-19T05:25:51.693Z,30.13
2022-08-19T05:28:21.470Z,28.90
2022-08-19T05:30:51.563Z,26.49
2022-08-19T05:33:19.824Z,26.66
2022-08-19T05:35:47.301Z,25.58
2022-08-19T05:38:14.653Z,24.93
2022-08-19T05:40:42.538Z,26.13
2022-08-19T05:43:10.075Z,26.01
2022-08-19T05:45:41.603Z,25.16
2022-08-19T05:48:12.192Z,25.51
2022-08-19T05:50:41.385Z,24.62
2022-08-19T05:53:09.977Z,25.09
2022-08-19T05:55:39.490Z,25.38
2022-08-19T05:58:08.687Z,24.96
2022-08-19T06:00:38.254Z,25.80
2022-08-19T06:03:12.833Z,25.71
2022-08-19T06:05:49.527Z,25.83
2022-08-19T06:08:20.276Z,24.77
2022-08-19T06:10:47.517Z,25.24
2022-08-19T06:13:14.919Z,26.05
2022-08-19T06:15:45.215Z,25.74
2022-08-19T06:18:12.760Z,26.95
2022-08-19T06:20:55.560Z,26.05
2022-08-19T06:23:24.232Z,28.94
2022-08-19T06:25:51.739Z,30.83
2022-08-19T06:28:19.300Z,31.47
2022-08-19T06:30:46.888Z,30.97
2022-08-19T06:33:14.109Z,31.28
2022-08-19T06:35:42.531Z,31.22
2022-08-19T06:38:10.639Z,34.64
2022-08-19T06:40:39.406Z,36.07
2022-08-19T06:43:08.487Z,36.91
2022-08-19T06:45:39.711Z,31.43
2022-08-19T06:48:08.067Z,33.40
2022-08-19T06:50:39.356Z,32.88
2022-08-19T06:53:07.273Z,33.18
2022-08-19T06:55:34.596Z,36.31
2022-08-19T06:58:05.077Z,33.59
2022-08-19T07:00:33.068Z,35.01
2022-08-19T07:03:06.047Z,33.77
2022-08-19T07:05:40.864Z,32.91
2022-08-19T07:08:12.980Z,34.95
2022-08-19T07:10:44.526Z,31.90
2022-08-19T07:13:12.601Z,32.01
2022-08-19T07:15:40.041Z,31.32
2022-08-19T07:18:07.878Z,32.63
2022-08-19T07:20:41.793Z,31.89
2022-08-19T07:23:16.013Z,35.00
2022-08-19T07:25:44.514Z,30.88
2022-08-19T07:28:18.969Z,32.65
2022-08-19T07:30:53.017Z,30.62
2022-08-19T07:33:20.844Z,32.49
2022-08-19T07:35:48.165Z,30.20
2022-08-19T07:38:16.944Z,33.59
2022-08-19T07:40:47.288Z,35.34
2022-08-19T07:43:17.759Z,33.87
2022-08-19T07:45:46.372Z,37.00
2022-08-19T07:48:13.721Z,38.05
2022-08-19T07:50:41.143Z,31.68
2022-08-19T07:53:08.552Z,35.27
2022-08-19T07:55:41.526Z,33.39
2022-08-19T07:58:13.358Z,35.42
2022-08-19T08:00:40.888Z,37.97
2022-08-19T08:03:09.641Z,34.56
2022-08-19T08:05:55.852Z,36.34
2022-08-19T08:08:44.101Z,34.69
2022-08-19T08:11:20.501Z,36.99
2022-08-19T08:14:00.330Z,37.64
2022-08-19T08:16:32.450Z,34.66
2022-08-19T08:19:00.375Z,34.31
2022-08-19T08:21:28.566Z,35.77
2022-08-19T08:23:56.856Z,33.83
2022-08-19T08:26:24.854Z,30.64
2022-08-19T08:28:53.104Z,32.08
2022-08-19T08:31:21.225Z,31.20
2022-08-19T08:33:48.505Z,31.56
2022-08-19T08:36:17.448Z,29.99
2022-08-19T08:38:49.121Z,29.61
2022-08-19T08:41:44.973Z,31.30
2022-08-19T08:44:20.223Z,30.59
2022-08-19T08:46:59.115Z,31.34
2022-08-19T08:49:38.246Z,31.70
2022-08-19T08:52:22.323Z,32.59
2022-08-19T08:54:55.695Z,33.07
2022-08-19T08:58:03.843Z,35.85
2022-08-19T09:00:35.483Z,36.86
2022-08-19T09:03:06.969Z,38.58
2022-08-19T09:06:03.506Z,39.04
2022-08-19T09:08:56.941Z,35.54
2022-08-19T09:12:14.662Z,34.57
2022-08-19T09:15:02.814Z,35.12
2022-08-19T09:17:32.225Z,34.93
2022-08-19T09:20:22.714Z,34.20
2022-08-19T09:22:50.658Z,31.10
2022-08-19T09:25:24.795Z,31.56
2022-08-19T09:28:02.642Z,32.71
2022-08-19T09:30:38.913Z,34.26
2022-08-19T09:33:07.271Z,34.09
2022-08-19T09:35:53.165Z,33.62
2022-08-19T09:38:22.331Z,31.80
2022-08-19T09:40:51.120Z,32.30
2022-08-19T09:43:32.582Z,31.94
2022-08-19T09:46:02.383Z,33.34
2022-08-19T09:48:29.635Z,31.67
2022-08-19T09:51:07.738Z,31.83
2022-08-19T09:53:40.070Z,33.77
2022-08-19T09:56:07.741Z,32.73
2022-08-19T09:58:37.622Z,32.15
2022-08-19T10:01:07.851Z,34.17
2022-08-19T10:03:37.379Z,35.34
2022-08-19T10:06:14.771Z,34.72
2022-08-19T10:08:50.225Z,35.46
2022-08-19T10:11:28.139Z,33.56
2022-08-19T10:14:06.907Z,32.57
2022-08-19T10:16:39.440Z,32.31
2022-08-19T10:19:07.136Z,33.48
2022-08-19T10:21:35.429Z,31.96
2022-08-19T10:24:06.636Z,31.01
2022-08-19T10:26:38.349Z,30.02
2022-08-19T10:29:09.233Z,30.90
2022-08-19T10:32:01.193Z,32.01
2022-08-19T10:34:27.887Z,32.03
2022-08-19T10:37:01.130Z,32.90
2022-08-19T10:39:43.070Z,32.39
2022-08-19T10:42:11.762Z,32.86
2022-08-19T10:44:39.046Z,32.35
2022-08-19T10:47:21.803Z,33.19
2022-08-19T10:50:12.460Z,32.22
2022-08-19T10:52:49.118Z,31.48
2022-08-19T10:55:43.440Z,31.28
2022-08-19T10:58:13.411Z,31.77
2022-08-19T11:00:41.792Z,32.80
2022-08-19T11:03:09.581Z,31.85
2022-08-19T11:05:39.899Z,31.77
2022-08-19T11:08:22.142Z,32.19
2022-08-19T11:11:00.267Z,32.47
2022-08-19T11:13:29.607Z,31.53
2022-08-19T11:16:07.111Z,32.01
2022-08-19T11:18:38.679Z,31.13
2022-08-19T11:21:15.659Z,30.45
2022-08-19T11:23:43.269Z,30.39
2022-08-19T11:26:11.022Z,30.06
2022-08-19T11:28:39.596Z,29.64
2022-08-19T11:31:18.294Z,30.09
2022-08-19T11:33:47.993Z,30.14
2022-08-19T11:36:17.069Z,30.17
2022-08-19T11:38:45.672Z,30.08
2022-08-19T11:41:13.103Z,29.92
2022-08-19T11:43:40.679Z,30.03
2022-08-19T11:46:11.003Z,30.24
2022-08-19T11:48:39.112Z,30.11
2022-08-19T11:51:12.689Z,29.90
2022-08-19T11:53:40.539Z,29.89
2022-08-19T11:56:09.828Z,30.34
2022-08-19T11:58:37.718Z,30.13
2022-08-19T12:01:13.409Z,30.06
2022-08-19T12:03:41.344Z,30.19
2022-08-19T12:06:11.136Z,30.57
2022-08-19T12:08:38.424Z,30.55
2022-08-19T12:11:08.851Z,30.74
2022-08-19T12:13:36.336Z,30.79
2022-08-19T12:16:13.203Z,30.74
2022-08-19T12:18:44.770Z,30.93
2022-08-19T12:21:13.344Z,30.92
2022-08-19T12:23:41.945Z,30.90
2022-08-19T12:26:11.609Z,30.96
2022-08-19T12:28:39.710Z,30.80
2022-08-19T12:31:07.024Z,30.49
2022-08-19T12:33:34.666Z,30.62
2022-08-19T12:36:07.356Z,30.76
2022-08-19T12:38:35.659Z,30.83
2022-08-19T12:41:08.042Z,30.45
2022-08-19T12:43:38.776Z,30.34
2022-08-19T12:46:06.931Z,30.65
2022-08-19T12:48:40.312Z,30.57
2022-08-19T12:51:11.872Z,30.82
2022-08-19T12:53:39.682Z,30.78
2022-08-19T12:56:11.469Z,30.66
2022-08-19T12:58:42.700Z,30.59
2022-08-19T13:01:21.913Z,30.52
2022-08-19T13:03:54.641Z,30.42
2022-08-19T13:06:22.560Z,30.57
2022-08-19T13:08:49.800Z,30.32
2022-08-19T13:11:20.415Z,30.41
2022-08-19T13:13:51.912Z,30.57
2022-08-19T13:16:21.318Z,30.71
2022-08-19T13:18:49.276Z,30.93
2022-08-19T13:21:16.713Z,30.97
2022-08-19T13:23:44.184Z,31.12
2022-08-19T13:26:13.639Z,31.01
2022-08-19T13:29:01.232Z,30.88
2022-08-19T13:31:50.501Z,30.87
2022-08-19T13:34:20.347Z,30.79
2022-08-19T13:36:47.760Z,30.87
2022-08-19T13:39:15.136Z,31.06
2022-08-19T13:41:49.058Z,31.13
2022-08-19T13:44:20.194Z,31.40
2022-08-19T13:46:49.711Z,31.08
2022-08-19T13:49:22.730Z,31.21
2022-08-19T13:51:50.013Z,31.23
2022-08-19T13:54:17.210Z,31.09
2022-08-19T13:56:46.821Z,30.95
2022-08-19T13:59:14.046Z,30.97
2022-08-19T14:01:42.356Z,31.09
2022-08-19T14:04:10.370Z,31.10
2022-08-19T14:06:37.590Z,31.13
2022-08-19T14:09:05.789Z,31.25
2022-08-19T14:11:33.200Z,31.21
2022-08-19T14:14:00.525Z,31.27
2022-08-19T14:16:28.339Z,31.01
2022-08-19T14:18:55.971Z,31.14
2022-08-19T14:21:25.573Z,31.18
2022-08-19T14:23:53.888Z,31.09
2022-08-19T14:26:22.445Z,31.26
2022-08-19T14:28:50.454Z,31.31
2022-08-19T14:31:20.161Z,31.28
2022-08-19T14:33:48.837Z,31.09
2022-08-19T14:36:16.330Z,31.04
2022-08-19T14:38:43.680Z,30.97
2022-08-19T14:41:18.016Z,30.97
2022-08-19T14:43:47.574Z,30.91
2022-08-19T14:46:21.930Z,30.80
2022-08-19T14:48:51.720Z,30.81
2022-08-19T14:51:21.233Z,30.76
2022-08-19T14:53:51.607Z,30.72
2022-08-19T14:56:23.095Z,30.78
2022-08-19T14:58:53.421Z,30.71
2022-08-19T15:01:23.186Z,30.56
2022-08-19T15:03:53.923Z,30.62
2022-08-19T15:06:23.233Z,30.62
2022-08-19T15:08:52.631Z,30.59
2022-08-19T15:11:23.666Z,30.57
2022-08-19T15:13:51.827Z,30.67
2022-08-19T15:16:19.394Z,30.64
2022-08-19T15:18:50.753Z,30.45
2022-08-19T15:21:27.065Z,30.44
2022-08-19T15:23:58.127Z,30.46
2022-08-19T15:26:33.306Z,30.42
2022-08-19T15:29:02.694Z,30.34
2022-08-19T15:31:33.069Z,30.41
2022-08-19T15:34:00.310Z,30.33
2022-08-19T15:36:28.523Z,30.32
2022-08-19T15:38:57.565Z,30.33
2022-08-19T15:41:28.083Z,30.29
2022-08-19T15:43:59.991Z,30.29
2022-08-19T15:46:29.626Z,30.29
2022-08-19T15:49:00.068Z,30.35
2022-08-19T15:51:28.853Z,30.33
2022-08-19T15:53:57.375Z,30.27
2022-08-19T15:56:27.358Z,30.18
2022-08-19T15:59:13.550Z,30.17
2022-08-19T16:01:59.705Z,30.21
2022-08-19T16:04:45.575Z,30.17
2022-08-19T16:07:13.062Z,30.21
2022-08-19T16:09:40.401Z,30.03
2022-08-19T16:12:08.698Z,30.18
2022-08-19T16:14:38.143Z,30.12
2022-08-19T16:17:05.825Z,30.11
2022-08-19T16:19:33.407Z,30.13
2022-08-19T16:22:00.965Z,30.12
2022-08-19T16:24:29.787Z,30.06
2022-08-19T16:26:57.310Z,29.99
2022-08-19T16:29:33.674Z,30.00
2022-08-19T16:32:03.168Z,30.00
2022-08-19T16:34:31.731Z,29.96
2022-08-19T16:37:01.011Z,29.98
2022-08-19T16:39:28.296Z,29.87
2022-08-19T16:41:55.833Z,29.86
2022-08-19T16:44:23.043Z,29.96
2022-08-19T16:46:58.296Z,29.88
2022-08-19T16:49:54.539Z,29.81
2022-08-19T16:52:19.638Z,29.81
2022-08-19T16:54:47.934Z,29.74
2022-08-19T16:57:16.183Z,29.85
2022-08-19T16:59:49.015Z,29.79
2022-08-19T17:02:18.634Z,29.72
2022-08-19T17:04:57.749Z,29.73
2022-08-19T17:07:28.150Z,29.71
2022-08-19T17:09:56.319Z,29.58
2022-08-19T17:12:30.603Z,29.56
2022-08-19T17:15:02.273Z,29.54
2022-08-19T17:17:31.801Z,29.44
2022-08-19T17:20:00.691Z,29.26
2022-08-19T17:22:28.611Z,29.29
2022-08-19T17:24:58.266Z,29.23
2022-08-19T17:27:31.449Z,29.14
2022-08-19T17:30:02.574Z,29.08
2022-08-19T17:32:35.042Z,29.06
2022-08-19T17:35:04.777Z,29.05
2022-08-19T17:37:32.707Z,28.97
2022-08-19T17:40:01.438Z,28.88
2022-08-19T17:42:29.062Z,28.84
2022-08-19T17:44:59.473Z,28.79
2022-08-19T17:47:28.287Z,28.73
2022-08-19T17:49:56.659Z,28.74
2022-08-19T17:52:24.001Z,28.70
2022-08-19T17:54:51.551Z,28.49
2022-08-19T17:57:18.937Z,28.71
2022-08-19T17:59:46.273Z,28.61
2022-08-19T18:02:13.894Z,28.56
2022-08-19T18:04:45.525Z,28.50
2022-08-19T18:07:21.765Z,28.52
2022-08-19T18:09:52.781Z,28.47
2022-08-19T18:12:26.807Z,28.44
2022-08-19T18:14:54.408Z,28.34
2022-08-19T18:17:23.451Z,28.31
2022-08-19T18:19:50.913Z,28.32
2022-08-19T18:22:23.491Z,28.24
2022-08-19T18:24:51.476Z,28.17
2022-08-19T18:27:19.069Z,28.16
2022-08-19T18:29:46.624Z,28.02
2022-08-19T18:32:17.158Z,28.03
2022-08-19T18:34:50.505Z,27.90
2022-08-19T18:37:17.772Z,27.91
2022-08-19T18:40:04.215Z,27.88
2022-08-19T18:42:50.379Z,27.94
2022-08-19T18:45:36.126Z,27.89
2022-08-19T18:48:27.376Z,27.97
2022-08-19T18:50:58.093Z,27.94
2022-08-19T18:53:27.840Z,27.96
2022-08-19T18:55:55.814Z,28.02
2022-08-19T18:58:26.618Z,28.01
2022-08-19T19:00:57.066Z,27.92
2022-08-19T19:03:26.833Z,28.02
2022-08-19T19:05:54.419Z,28.06
2022-08-19T19:08:26.891Z,27.92
2022-08-19T19:10:56.471Z,28.11
2022-08-19T19:13:23.941Z,28.09
2022-08-19T19:15:51.740Z,28.10
2022-08-19T19:18:19.028Z,28.16
2022-08-19T19:20:46.422Z,28.02
2022-08-19T19:23:13.653Z,27.97
2022-08-19T19:25:49.942Z,27.81
2022-08-19T19:28:27.596Z,27.81
2022-08-19T19:30:59.676Z,27.80
2022-08-19T19:33:28.100Z,27.85
2022-08-19T19:35:55.655Z,27.82
2022-08-19T19:38:23.210Z,27.82
2022-08-19T19:40:50.662Z,27.78
2022-08-19T19:43:18.494Z,27.72
2022-08-19T19:45:47.096Z,27.71
2022-08-19T19:48:15.011Z,27.61
2022-08-19T19:50:44.893Z,27.68
2022-08-19T19:53:15.144Z,27.64
2022-08-19T19:55:43.455Z,27.54
2022-08-19T19:58:10.758Z,27.59
2022-08-19T20:00:38.119Z,27.54
2022-08-19T20:03:06.415Z,27.47
2022-08-19T20:05:33.671Z,27.36
2022-08-19T20:08:19.647Z,27.39
2022-08-19T20:10:47.396Z,27.41
2022-08-19T20:13:15.791Z,27.28
2022-08-19T20:15:46.077Z,27.28
2022-08-19T20:18:14.652Z,27.27
2022-08-19T20:20:43.435Z,27.13
2022-08-19T20:23:10.835Z,27.26
2022-08-19T20:25:39.592Z,27.16
2022-08-19T20:28:06.900Z,27.14
2022-08-19T20:30:34.226Z,27.12
2022-08-19T20:33:04.658Z,27.04
2022-08-19T20:35:31.887Z,27.06
2022-08-19T20:38:03.805Z,26.95
2022-08-19T20:40:32.365Z,26.96
2022-08-19T20:42:59.583Z,26.96
2022-08-19T20:45:32.609Z,26.94
2022-08-19T20:48:06.516Z,26.81
2022-08-19T20:50:35.356Z,26.99
2022-08-19T20:53:10.722Z,26.93
2022-08-19T20:55:38.468Z,26.87
2022-08-19T20:58:05.782Z,26.74
2022-08-19T21:00:33.636Z,26.77
2022-08-19T21:03:01.050Z,26.71
2022-08-19T21:05:30.612Z,26.73
2022-08-19T21:07:58.536Z,26.73
2022-08-19T21:10:26.510Z,26.73
2022-08-19T21:12:53.711Z,26.71
2022-08-19T21:15:21.061Z,26.63
2022-08-19T21:17:48.771Z,26.51
2022-08-19T21:20:16.069Z,26.56
2022-08-19T21:22:43.276Z,26.47
2022-08-19T21:25:11.119Z,26.57
2022-08-19T21:27:38.308Z,26.45
2022-08-19T21:30:06.592Z,26.53
2022-08-19T21:32:34.011Z,26.61
2022-08-19T21:35:02.396Z,26.44
2022-08-19T21:37:29.702Z,26.59
2022-08-19T21:39:57.191Z,26.55
2022-08-19T21:42:24.424Z,26.37
2022-08-19T21:44:52.206Z,26.47
2022-08-19T21:47:19.603Z,26.47
2022-08-19T21:49:46.789Z,26.46
2022-08-19T21:52:14.065Z,26.48
2022-08-19T21:54:42.219Z,26.33
2022-08-19T21:57:10.587Z,26.30
2022-08-19T21:59:44.221Z,26.25
2022-08-19T22:02:21.653Z,26.30
2022-08-19T22:04:50.927Z,26.29
2022-08-19T22:07:20.391Z,26.26
2022-08-19T22:09:49.042Z,26.25
2022-08-19T22:12:23.448Z,26.09
2022-08-19T22:14:52.609Z,26.01
2022-08-19T22:17:20.308Z,26.11
2022-08-19T22:19:47.504Z,26.07
2022-08-19T22:22:39.079Z,25.92
2022-08-19T22:25:08.299Z,26.05
2022-08-19T22:27:36.768Z,25.89
2022-08-19T22:30:07.160Z,25.83
2022-08-19T22:32:38.152Z,25.87
2022-08-19T22:35:08.674Z,25.71
2022-08-19T22:37:35.921Z,25.65
2022-08-19T22:40:05.658Z,25.49
2022-08-19T22:42:33.027Z,25.62
2022-08-19T22:45:01.113Z,25.62
2022-08-19T22:47:29.470Z,25.64
2022-08-19T22:49:59.529Z,25.52
2022-08-19T22:52:26.756Z,25.58
2022-08-19T22:54:59.048Z,25.64
2022-08-19T22:57:27.387Z,25.61
2022-08-19T22:59:56.188Z,25.51
2022-08-19T23:02:34.585Z,25.51
2022-08-19T23:05:02.686Z,25.48
2022-08-19T23:07:30.244Z,25.32
2022-08-19T23:09:57.562Z,25.40
2022-08-19T23:12:31.211Z,25.46
2022-08-19T23:15:19.954Z,25.33
2022-08-19T23:17:47.182Z,25.41
2022-08-19T23:20:15.913Z,25.37
2022-08-19T23:22:46.664Z,25.36
2022-08-19T23:25:17.513Z,25.34
2022-08-19T23:28:03.498Z,25.36
2022-08-19T23:30:32.413Z,25.32
2022-08-19T23:33:07.710Z,25.30
2022-08-19T23:35:38.482Z,25.35
2022-08-19T23:38:07.678Z,25.21
2022-08-19T23:40:36.705Z,25.27
2022-08-19T23:43:07.856Z,25.34
2022-08-19T23:45:38.916Z,25.26
2022-08-19T23:48:07.137Z,25.21
2022-08-19T23:50:35.415Z,25.17
2022-08-19T23:53:03.652Z,25.25
2022-08-19T23:55:35.412Z,25.22
2022-08-19T23:58:03.723Z,25.07
